Time;durP1;ratioP1;P1;durP2;ratioP2;P2;SDS_P1;SDS_P2;PMS_P1;PMS_P2;Temp;Humidity;BMP_temperature;BMP_pressure;BME280_temperature;BME280_humidity;BME280_pressure;Samples;Min_cycle;Max_cycle;Signal;HPM_P1;HPM_P2
2023/03/12 00:00:28;;;;;;;10.63;4.90;;;1.80;77.50;;;;;;9177304;19;20345;-61
2023/03/12 00:03:34;;;;;;;13.80;5.93;;;1.80;77.60;;;;;;9178412;19;20018;-61
2023/03/12 00:06:38;;;;;;;12.20;4.85;;;1.80;77.60;;;;;;9176465;19;20011;-61
2023/03/12 00:09:46;;;;;;;9.75;4.80;;;1.80;77.60;;;;;;9172950;19;20078;-61
2023/03/12 00:12:50;;;;;;;12.60;5.25;;;1.80;77.70;;;;;;9168516;19;20026;-61
2023/03/12 00:15:56;;;;;;;12.30;5.45;;;1.80;77.70;;;;;;9174440;19;20368;-62
2023/03/12 00:19:00;;;;;;;11.93;5.13;;;1.70;77.70;;;;;;9176621;19;20011;-61
2023/03/12 00:22:06;;;;;;;10.00;5.35;;;1.80;77.70;;;;;;9177584;19;20019;-61
2023/03/12 00:25:16;;;;;;;15.60;6.53;;;1.70;77.70;;;;;;9178079;19;20011;-61
2023/03/12 00:28:22;;;;;;;13.85;6.38;;;1.70;77.70;;;;;;9173005;19;20474;-61
2023/03/12 00:31:29;;;;;;;22.23;7.82;;;1.80;77.80;;;;;;9175632;19;20371;-61
2023/03/12 00:34:35;;;;;;;23.10;8.38;;;1.70;77.70;;;;;;9176435;19;20011;-61
2023/03/12 00:37:39;;;;;;;21.25;8.15;;;1.70;77.70;;;;;;9176491;19;20026;-61
2023/03/12 00:40:47;;;;;;;23.58;9.55;;;1.70;77.80;;;;;;9177052;19;20010;-61
2023/03/12 00:43:52;;;;;;;25.90;9.50;;;1.70;77.80;;;;;;9176374;19;20176;-61
2023/03/12 00:46:58;;;;;;;25.23;9.18;;;1.70;77.80;;;;;;9175053;19;20015;-61
2023/03/12 00:50:02;;;;;;;22.17;8.02;;;1.70;77.80;;;;;;9170751;19;20015;-61
2023/03/12 00:53:08;;;;;;;20.58;8.05;;;1.60;77.80;;;;;;9176664;19;20038;-61
2023/03/12 00:56:15;;;;;;;21.85;7.95;;;1.60;77.90;;;;;;9174913;19;20024;-61
2023/03/12 00:59:21;;;;;;;15.57;6.32;;;1.60;78.00;;;;;;9175500;19;20437;-61
2023/03/12 01:02:25;;;;;;;13.50;6.93;;;1.60;78.00;;;;;;9176352;19;20476;-61
2023/03/12 01:05:36;;;;;;;15.35;6.60;;;1.60;78.00;;;;;;9180621;19;20074;-61
2023/03/12 01:08:40;;;;;;;16.30;6.55;;;1.60;78.00;;;;;;9180245;19;20014;-61
2023/03/12 01:11:48;;;;;;;12.02;6.75;;;1.60;78.00;;;;;;9184615;19;20797;-61
2023/03/12 01:14:52;;;;;;;12.77;6.10;;;1.50;78.00;;;;;;9178525;19;20018;-61
2023/03/12 01:17:58;;;;;;;16.27;7.47;;;1.50;78.00;;;;;;9181113;19;20848;-61
2023/03/12 01:21:02;;;;;;;15.85;6.72;;;1.50;78.00;;;;;;9181838;19;20037;-61
2023/03/12 01:24:09;;;;;;;13.18;6.50;;;1.50;78.00;;;;;;9181356;19;20345;-61
2023/03/12 01:27:15;;;;;;;16.08;7.15;;;1.50;78.10;;;;;;9183253;19;20368;-61
2023/03/12 01:30:22;;;;;;;17.77;7.30;;;1.50;78.10;;;;;;9179557;19;20017;-61
2023/03/12 01:33:26;;;;;;;12.90;6.30;;;1.50;78.10;;;;;;9184172;19;20022;-61
2023/03/12 01:36:32;;;;;;;19.20;7.38;;;1.50;78.10;;;;;;9183275;19;20489;-61
2023/03/12 01:39:36;;;;;;;11.45;5.82;;;1.50;78.20;;;;;;9180961;19;20014;-61
2023/03/12 01:42:44;;;;;;;12.90;5.95;;;1.50;78.10;;;;;;9175412;19;20342;-61
2023/03/12 01:46:04;;;;;;;11.75;6.00;;;1.50;78.20;;;;;;9181607;19;20021;-61
2023/03/12 01:49:14;;;;;;;13.70;5.97;;;1.50;78.20;;;;;;9177967;19;20011;-61
2023/03/12 01:52:22;;;;;;;14.25;5.93;;;1.50;78.20;;;;;;9177328;19;20090;-61
2023/03/12 01:55:31;;;;;;;17.55;5.72;;;1.50;78.20;;;;;;9179672;19;20362;-62
2023/03/12 01:58:41;;;;;;;9.77;5.75;;;1.50;78.30;;;;;;9179067;19;20024;-61
2023/03/12 02:01:48;;;;;;;11.95;5.85;;;1.50;78.30;;;;;;9178830;19;20021;-61
2023/03/12 02:05:05;;;;;;;11.80;6.20;;;1.40;78.20;;;;;;9179814;19;20018;-60
2023/03/12 02:08:11;;;;;;;13.00;6.63;;;1.50;78.30;;;;;;9178699;19;20034;-61
2023/03/12 02:11:16;;;;;;;10.52;5.70;;;1.50;78.30;;;;;;9182106;19;20459;-61
2023/03/12 02:14:24;;;;;;;9.65;5.57;;;1.50;78.40;;;;;;9174879;19;20010;-61
2023/03/12 02:17:28;;;;;;;13.98;5.70;;;1.50;78.40;;;;;;9178155;19;20351;-61
2023/03/12 02:20:41;;;;;;;9.00;5.35;;;1.50;78.40;;;;;;9178589;19;20372;-61
2023/03/12 02:23:50;;;;;;;11.52;5.85;;;1.50;78.40;;;;;;9179942;19;20030;-61
2023/03/12 02:26:59;;;;;;;9.18;5.78;;;1.50;78.40;;;;;;9178530;19;20010;-61
2023/03/12 02:30:04;;;;;;;11.77;5.85;;;1.50;78.40;;;;;;9176335;19;20041;-61
2023/03/12 02:33:13;;;;;;;13.60;5.65;;;1.50;78.40;;;;;;9179448;19;20491;-61
2023/03/12 02:36:17;;;;;;;12.95;6.75;;;1.50;78.50;;;;;;9179085;19;20086;-61
2023/03/12 02:39:24;;;;;;;9.88;4.40;;;1.50;78.40;;;;;;9178986;19;20929;-61
2023/03/12 02:42:32;;;;;;;15.80;5.07;;;1.50;78.50;;;;;;9178655;19;20017;-61
2023/03/12 02:45:37;;;;;;;14.55;5.32;;;1.50;78.50;;;;;;9179886;19;20014;-61
2023/03/12 02:48:44;;;;;;;12.95;5.10;;;1.60;79.10;;;;;;9176380;19;20022;-61
2023/03/12 02:51:48;;;;;;;12.13;5.60;;;1.60;78.60;;;;;;9178389;19;20007;-61
2023/03/12 02:54:54;;;;;;;8.90;5.13;;;1.60;78.60;;;;;;9178282;19;20018;-61
2023/03/12 02:58:00;;;;;;;9.68;4.95;;;1.60;78.50;;;;;;9177643;19;20047;-61
2023/03/12 03:01:08;;;;;;;14.68;5.65;;;1.60;78.60;;;;;;9178810;19;20014;-61
2023/03/12 03:04:13;;;;;;;10.75;4.82;;;1.60;78.50;;;;;;9177778;19;20026;-60
2023/03/12 03:07:19;;;;;;;14.00;5.85;;;1.60;78.60;;;;;;9174512;19;20078;-61
2023/03/12 03:10:23;;;;;;;10.98;5.13;;;1.60;78.50;;;;;;9176856;19;20033;-61
2023/03/12 03:13:31;;;;;;;16.10;4.35;;;1.70;78.60;;;;;;9172491;19;20010;-61
2023/03/12 03:16:35;;;;;;;14.27;5.53;;;1.70;78.60;;;;;;9175411;19;20030;-61
2023/03/12 03:19:41;;;;;;;12.10;5.13;;;1.70;78.60;;;;;;9177161;19;20041;-61
2023/03/12 03:22:45;;;;;;;11.45;5.03;;;1.70;78.60;;;;;;9177800;19;20018;-61
2023/03/12 03:25:51;;;;;;;12.40;5.45;;;1.70;78.50;;;;;;9176488;19;20017;-61
2023/03/12 03:28:57;;;;;;;14.20;5.78;;;1.70;78.50;;;;;;9174955;19;20015;-61
2023/03/12 03:32:04;;;;;;;14.30;4.55;;;1.70;78.50;;;;;;9172792;19;20010;-61
2023/03/12 03:35:08;;;;;;;15.88;5.28;;;1.70;78.50;;;;;;9178660;19;20021;-60
2023/03/12 03:38:15;;;;;;;10.95;5.38;;;1.70;78.60;;;;;;9176035;19;20356;-60
2023/03/12 03:41:20;;;;;;;18.38;5.97;;;1.70;78.50;;;;;;9177364;19;20464;-60
2023/03/12 03:44:29;;;;;;;15.02;4.93;;;1.80;78.60;;;;;;9176988;19;20011;-60
2023/03/12 03:47:33;;;;;;;14.20;5.50;;;1.80;78.60;;;;;;9177840;19;20018;-60
2023/03/12 03:50:40;;;;;;;11.25;5.10;;;1.80;78.60;;;;;;9173399;19;20380;-60
2023/03/12 03:53:44;;;;;;;15.48;6.43;;;1.80;78.50;;;;;;9174897;19;20015;-61
2023/03/12 03:56:51;;;;;;;14.80;4.97;;;1.80;78.50;;;;;;9174808;19;20029;-61
2023/03/12 03:59:57;;;;;;;16.20;5.82;;;1.90;78.70;;;;;;9176842;19;20031;-61
2023/03/12 04:03:03;;;;;;;10.98;5.18;;;1.90;78.70;;;;;;9177725;19;20023;-60
2023/03/12 04:06:09;;;;;;;13.13;5.15;;;1.90;78.60;;;;;;9177187;19;20022;-61
2023/03/12 04:09:15;;;;;;;9.18;4.85;;;1.90;78.60;;;;;;9172478;19;20010;-61
2023/03/12 04:12:19;;;;;;;12.20;5.25;;;1.90;78.60;;;;;;9177899;19;20368;-61
2023/03/12 04:15:27;;;;;;;10.35;4.53;;;1.90;78.60;;;;;;9171639;19;20364;-61
2023/03/12 04:18:32;;;;;;;11.25;5.00;;;2.00;78.60;;;;;;9176417;19;20074;-61
2023/03/12 04:21:40;;;;;;;16.02;4.80;;;1.90;78.50;;;;;;9177723;19;20508;-61
2023/03/12 04:24:44;;;;;;;13.80;5.15;;;2.00;78.60;;;;;;9176167;19;20014;-61
2023/03/12 04:27:51;;;;;;;13.70;5.32;;;2.00;78.50;;;;;;9174458;19;20014;-61
2023/03/12 04:31:00;;;;;;;13.10;4.45;;;2.00;78.60;;;;;;9172083;19;20011;-61
2023/03/12 04:34:11;;;;;;;12.18;4.85;;;2.00;78.50;;;;;;9174738;19;20019;-61
2023/03/12 04:37:18;;;;;;;8.50;4.28;;;2.00;78.50;;;;;;9175975;19;20028;-61
2023/03/12 04:40:25;;;;;;;9.68;4.57;;;2.00;78.50;;;;;;9174061;19;20029;-60
2023/03/12 04:43:35;;;;;;;8.25;4.25;;;2.00;78.60;;;;;;9175079;19;20015;-61
2023/03/12 04:46:44;;;;;;;11.75;4.40;;;2.00;78.60;;;;;;9174234;19;20486;-61
2023/03/12 04:49:52;;;;;;;8.35;4.40;;;2.00;78.60;;;;;;9175250;19;20082;-61
2023/03/12 04:52:58;;;;;;;20.75;4.20;;;2.00;79.10;;;;;;9175274;19;20014;-61
2023/03/12 04:56:02;;;;;;;8.63;4.45;;;2.00;78.60;;;;;;9174209;19;20014;-61
2023/03/12 04:59:10;;;;;;;18.08;4.18;;;2.00;78.50;;;;;;9174137;19;20018;-61
2023/03/12 05:02:18;;;;;;;7.30;3.58;;;2.00;79.10;;;;;;9173252;19;20014;-61
2023/03/12 05:05:24;;;;;;;11.70;3.78;;;2.00;78.40;;;;;;9174007;19;20006;-61
2023/03/12 05:08:28;;;;;;;14.18;3.63;;;2.00;78.40;;;;;;9173864;19;20025;-60
2023/03/12 05:11:34;;;;;;;7.72;4.35;;;2.10;78.50;;;;;;9171267;19;20025;-60
2023/03/12 05:14:39;;;;;;;7.40;4.13;;;2.10;78.50;;;;;;9167474;19;20053;-60
2023/03/12 05:17:48;;;;;;;8.45;4.15;;;2.10;78.50;;;;;;9173837;19;20011;-60
2023/03/12 05:20:59;;;;;;;6.90;3.70;;;2.10;78.50;;;;;;9173909;19;20018;-60
2023/03/12 05:24:06;;;;;;;7.32;2.92;;;2.20;78.50;;;;;;9175052;19;20484;-61
2023/03/12 05:27:10;;;;;;;11.77;4.18;;;2.20;78.50;;;;;;9174228;19;20024;-60
2023/03/12 05:30:17;;;;;;;6.45;3.80;;;2.20;78.40;;;;;;9171178;19;20018;-60
2023/03/12 05:33:24;;;;;;;7.45;3.67;;;2.20;78.40;;;;;;9173462;19;20520;-61
2023/03/12 05:36:30;;;;;;;16.95;4.13;;;2.20;78.40;;;;;;9173326;19;21588;-61
2023/03/12 05:39:34;;;;;;;6.93;3.80;;;2.30;78.50;;;;;;9174277;19;20035;-61
2023/03/12 05:42:43;;;;;;;12.77;4.05;;;2.20;78.40;;;;;;9172666;19;20368;-62
2023/03/12 05:45:48;;;;;;;15.55;4.38;;;2.30;78.40;;;;;;9172174;19;20029;-61
2023/03/12 05:48:56;;;;;;;12.63;3.55;;;2.30;78.40;;;;;;9172169;19;20019;-61
2023/03/12 05:52:00;;;;;;;7.63;3.70;;;2.30;78.40;;;;;;9175870;19;20015;-62
2023/03/12 05:55:08;;;;;;;10.10;4.60;;;2.30;78.30;;;;;;9180819;19;20647;-61
2023/03/12 05:58:12;;;;;;;14.35;4.45;;;2.30;78.30;;;;;;9178792;19;20014;-61
2023/03/12 06:01:22;;;;;;;12.98;4.38;;;2.40;78.40;;;;;;9181340;19;20025;-61
2023/03/12 06:04:28;;;;;;;11.60;4.15;;;2.50;78.40;;;;;;9182790;19;20350;-63
2023/03/12 06:07:34;;;;;;;9.77;4.32;;;2.40;78.30;;;;;;9177993;19;20011;-61
2023/03/12 06:10:39;;;;;;;15.30;4.45;;;2.40;78.30;;;;;;9177457;19;20379;-62
2023/03/12 06:13:45;;;;;;;10.68;4.47;;;2.50;78.30;;;;;;9175761;19;20010;-62
2023/03/12 06:16:49;;;;;;;12.40;3.95;;;2.50;78.30;;;;;;9180342;19;20080;-62
2023/03/12 06:19:58;;;;;;;12.73;4.10;;;2.50;78.30;;;;;;9178996;19;20010;-62
2023/03/12 06:23:02;;;;;;;12.35;4.47;;;2.50;78.30;;;;;;9176805;19;20029;-61
2023/03/12 06:26:11;;;;;;;9.80;4.18;;;2.50;78.20;;;;;;9175935;19;20014;-62
2023/03/12 06:29:15;;;;;;;10.52;4.25;;;2.60;78.30;;;;;;9174896;19;20034;-62
2023/03/12 06:32:22;;;;;;;11.43;3.70;;;2.60;78.20;;;;;;9174794;19;20021;-62
2023/03/12 06:35:28;;;;;;;9.43;4.18;;;2.60;78.20;;;;;;9175419;19;20018;-62
2023/03/12 06:38:34;;;;;;;12.07;3.85;;;2.60;78.20;;;;;;9177372;19;20491;-62
2023/03/12 06:41:40;;;;;;;9.90;4.28;;;2.60;78.20;;;;;;9178168;19;20017;-62
2023/03/12 06:44:46;;;;;;;8.75;3.60;;;2.70;78.20;;;;;;9179302;19;20014;-61
2023/03/12 06:47:50;;;;;;;7.47;3.67;;;2.70;78.30;;;;;;9179835;19;20018;-62
2023/03/12 06:50:58;;;;;;;7.53;3.00;;;2.70;78.20;;;;;;9178269;19;20026;-61
2023/03/12 06:54:02;;;;;;;7.72;3.75;;;2.70;78.20;;;;;;9180463;19;20052;-61
2023/03/12 06:57:08;;;;;;;10.60;3.13;;;2.80;78.30;;;;;;9179725;19;20356;-61
2023/03/12 07:00:13;;;;;;;9.95;3.70;;;2.80;78.30;;;;;;9178570;19;20400;-61
2023/03/12 07:03:20;;;;;;;9.70;3.50;;;2.80;78.20;;;;;;9175815;19;20356;-62
2023/03/12 07:06:26;;;;;;;10.43;3.97;;;2.80;78.20;;;;;;9180089;19;20014;-62
2023/03/12 07:09:32;;;;;;;6.82;3.45;;;2.80;78.20;;;;;;9177471;19;20014;-61
2023/03/12 07:12:36;;;;;;;8.10;3.05;;;2.90;78.30;;;;;;9174976;19;20483;-62
2023/03/12 07:15:43;;;;;;;7.90;2.85;;;2.90;78.30;;;;;;9180130;19;20014;-61
2023/03/12 07:18:47;;;;;;;7.63;3.10;;;2.90;78.30;;;;;;9179991;19;20011;-62
2023/03/12 07:21:55;;;;;;;6.80;2.97;;;2.90;78.30;;;;;;9177016;19;20010;-62
2023/03/12 07:24:59;;;;;;;8.25;3.92;;;2.90;78.30;;;;;;9180661;19;20037;-62
2023/03/12 07:28:06;;;;;;;12.60;4.38;;;2.90;78.30;;;;;;9177952;19;20025;-61
2023/03/12 07:31:10;;;;;;;8.32;3.50;;;3.00;78.40;;;;;;9175326;19;20014;-62
2023/03/12 07:34:16;;;;;;;11.25;3.65;;;3.00;78.40;;;;;;9180189;19;20018;-60
2023/03/12 07:37:22;;;;;;;11.43;3.65;;;3.00;78.40;;;;;;9178910;19;20527;-61
2023/03/12 07:40:29;;;;;;;11.65;3.20;;;3.00;78.40;;;;;;9178974;19;20007;-62
2023/03/12 07:43:33;;;;;;;8.73;3.00;;;3.00;78.40;;;;;;9179470;19;20014;-61
2023/03/12 07:46:40;;;;;;;7.80;3.42;;;3.10;78.50;;;;;;9179249;19;20015;-62
2023/03/12 07:49:43;;;;;;;13.60;3.33;;;3.10;78.50;;;;;;9175530;19;20038;-61
2023/03/12 07:52:52;;;;;;;7.30;3.60;;;3.10;78.50;;;;;;9179123;19;20030;-61
2023/03/12 07:55:56;;;;;;;8.63;3.33;;;3.10;78.60;;;;;;9178021;19;20014;-61
2023/03/12 07:59:02;;;;;;;11.07;3.20;;;3.10;78.60;;;;;;9174367;19;20360;-61
2023/03/12 08:02:07;;;;;;;4.95;2.85;;;3.10;78.70;;;;;;9177885;19;20029;-61
2023/03/12 08:05:13;;;;;;;8.77;3.50;;;3.10;78.70;;;;;;9174846;19;20003;-63
2023/03/12 08:08:20;;;;;;;10.02;3.65;;;3.10;78.70;;;;;;9176948;19;20377;-62
2023/03/12 08:11:26;;;;;;;6.03;2.80;;;3.20;78.80;;;;;;9174440;19;20718;-62
2023/03/12 08:14:30;;;;;;;7.88;2.95;;;3.10;78.80;;;;;;9170100;19;20014;-62
2023/03/12 08:17:36;;;;;;;9.80;2.88;;;3.20;78.90;;;;;;9177166;19;20019;-62
2023/03/12 08:20:40;;;;;;;7.68;3.08;;;3.20;78.90;;;;;;9175712;19;20014;-62
2023/03/12 08:23:48;;;;;;;13.15;3.10;;;3.20;79.00;;;;;;9176138;19;20377;-62
2023/03/12 08:26:53;;;;;;;8.13;3.00;;;3.20;79.00;;;;;;9177555;19;20571;-63
2023/03/12 08:29:59;;;;;;;5.10;3.30;;;3.20;79.00;;;;;;9174162;19;20018;-63
2023/03/12 08:33:03;;;;;;;7.60;4.50;;;3.20;79.10;;;;;;9176917;19;20021;-63
2023/03/12 08:36:09;;;;;;;11.48;3.63;;;3.30;79.10;;;;;;9175321;19;20295;-62
2023/03/12 08:39:15;;;;;;;11.18;4.50;;;3.30;79.20;;;;;;9176357;19;20024;-62
2023/03/12 08:42:21;;;;;;;10.13;3.53;;;3.30;79.20;;;;;;9174684;19;20018;-62
2023/03/12 08:45:25;;;;;;;7.82;3.60;;;3.30;79.20;;;;;;9174527;19;20545;-62
2023/03/12 08:48:33;;;;;;;11.63;3.88;;;3.30;79.30;;;;;;9176193;19;20384;-62
2023/03/12 08:51:37;;;;;;;11.35;3.58;;;3.30;79.30;;;;;;9173708;19;20018;-62
2023/03/12 08:54:45;;;;;;;6.95;3.35;;;3.30;79.30;;;;;;9174310;19;20464;-62
2023/03/12 08:57:49;;;;;;;10.07;3.63;;;3.30;79.30;;;;;;9175866;19;20010;-62
2023/03/12 09:00:56;;;;;;;8.48;3.75;;;3.40;79.40;;;;;;9173463;19;20003;-62
2023/03/12 09:04:01;;;;;;;8.10;3.75;;;3.40;79.50;;;;;;9176541;19;20017;-63
2023/03/12 09:07:08;;;;;;;14.35;3.70;;;3.40;79.50;;;;;;9174855;19;20014;-62
2023/03/12 09:10:14;;;;;;;13.70;3.88;;;3.40;79.50;;;;;;9162525;19;20032;-62
2023/03/12 09:13:20;;;;;;;17.10;3.95;;;3.50;79.60;;;;;;9161256;19;20062;-62
2023/03/12 09:16:24;;;;;;;8.65;3.92;;;3.50;79.60;;;;;;9168501;19;20015;-62
2023/03/12 09:19:30;;;;;;;14.43;3.85;;;3.50;79.70;;;;;;9167238;19;20019;-62
2023/03/12 09:22:35;;;;;;;8.63;3.78;;;3.50;79.70;;;;;;9164744;19;20085;-61
2023/03/12 09:25:46;;;;;;;13.93;5.50;;;3.60;79.80;;;;;;9169777;19;20014;-61
2023/03/12 09:28:50;;;;;;;14.90;4.53;;;3.60;79.90;;;;;;9174696;19;20029;-61
2023/03/12 09:31:57;;;;;;;7.85;4.68;;;3.60;79.90;;;;;;9170684;19;20463;-62
2023/03/12 09:35:00;;;;;;;12.60;4.53;;;3.60;79.90;;;;;;9176512;19;20019;-62
2023/03/12 09:38:07;;;;;;;12.32;4.43;;;3.60;79.90;;;;;;9173923;19;20014;-61
2023/03/12 09:41:21;;;;;;;12.90;5.10;;;3.60;80.00;;;;;;9175590;19;20015;-61
2023/03/12 09:44:32;;;;;;;16.42;5.70;;;3.60;80.10;;;;;;9174612;19;20025;-62
2023/03/12 09:47:42;;;;;;;11.13;5.50;;;3.70;80.10;;;;;;9174918;19;20591;-62
2023/03/12 09:50:51;;;;;;;12.85;6.65;;;3.70;80.10;;;;;;9172868;19;20352;-62
2023/03/12 09:53:59;;;;;;;12.45;5.70;;;3.80;80.30;;;;;;9173031;19;20023;-62
2023/03/12 09:57:15;;;;;;;13.60;6.32;;;3.80;80.30;;;;;;9174829;19;20018;-61
2023/03/12 10:00:21;;;;;;;;;;;3.80;80.30;;;;;;9174154;19;20026;-61
2023/03/12 10:03:56;;;;;;;17.08;6.57;;;3.80;80.30;;;;;;9173661;19;19918;-62
2023/03/12 10:07:08;;;;;;;14.48;8.25;;;3.90;80.20;;;;;;9168761;19;20022;-62
2023/03/12 10:10:37;;;;;;;14.57;7.82;;;3.90;80.30;;;;;;9162091;19;20038;-62
2023/03/12 10:14:06;;;;;;;21.92;9.35;;;3.90;80.40;;;;;;9163393;19;20040;-62
2023/03/12 10:17:28;;;;;;;17.25;8.48;;;3.90;80.50;;;;;;9172459;19;20479;-62
2023/03/12 10:20:51;;;;;;;13.18;9.13;;;4.00;80.60;;;;;;9173071;19;20023;-62
2023/03/12 10:24:11;;;;;;;16.88;8.40;;;4.00;80.60;;;;;;9172647;19;20018;-62
2023/03/12 10:27:17;;;;;;;12.73;8.02;;;4.10;80.70;;;;;;9172846;19;20011;-62
2023/03/12 10:30:27;;;;;;;20.75;8.60;;;4.10;80.70;;;;;;9172960;19;20368;-61
2023/03/12 10:33:42;;;;;;;13.85;7.03;;;4.10;80.80;;;;;;9169981;19;20015;-61
2023/03/12 10:36:50;;;;;;;10.93;7.20;;;4.20;81.50;;;;;;9167733;19;20044;-62
2023/03/12 10:39:56;;;;;;;12.00;7.28;;;4.30;80.90;;;;;;9172267;19;20022;-62
2023/03/12 10:43:03;;;;;;;10.82;6.05;;;4.30;81.00;;;;;;9174152;19;20509;-62
2023/03/12 10:46:31;;;;;;;13.68;6.82;;;4.40;81.10;;;;;;9168515;19;20760;-61
2023/03/12 10:49:40;;;;;;;12.63;6.88;;;4.40;81.20;;;;;;9169130;19;20010;-62
2023/03/12 10:52:44;;;;;;;21.73;7.25;;;4.40;81.20;;;;;;9163572;19;20082;-62
2023/03/12 10:56:01;;;;;;;13.68;6.63;;;4.50;81.20;;;;;;9158707;19;20625;-62
2023/03/12 10:59:20;;;;;;;13.15;7.43;;;4.60;81.40;;;;;;9158312;19;20014;-63
2023/03/12 11:02:35;;;;;;;10.80;5.95;;;4.60;81.40;;;;;;9159740;19;20019;-62
2023/03/12 11:05:49;;;;;;;13.93;7.05;;;4.70;81.50;;;;;;9162475;19;20014;-63
2023/03/12 11:09:07;;;;;;;11.40;6.60;;;4.70;81.50;;;;;;9167099;19;20025;-62
2023/03/12 11:12:29;;;;;;;10.77;6.63;;;4.80;81.60;;;;;;9167626;19;20029;-62
2023/03/12 11:15:40;;;;;;;16.77;6.60;;;4.90;81.70;;;;;;9170715;19;20014;-63
2023/03/12 11:18:55;;;;;;;13.15;6.93;;;5.00;81.70;;;;;;9171867;19;20475;-62
2023/03/12 11:22:03;;;;;;;13.40;6.90;;;5.00;81.90;;;;;;9169447;19;20025;-62
2023/03/12 11:25:20;;;;;;;12.75;7.05;;;5.10;81.80;;;;;;9173543;19;20017;-63
2023/03/12 11:28:32;;;;;;;13.57;6.82;;;5.20;81.90;;;;;;9171768;19;20022;-62
2023/03/12 11:31:42;;;;;;;11.30;6.32;;;5.20;81.90;;;;;;9167474;19;20018;-62
2023/03/12 11:34:52;;;;;;;;;;;5.30;82.10;;;;;;9173014;19;20019;-63
2023/03/12 11:38:03;;;;;;;18.80;7.30;;;5.40;82.00;;;;;;9169994;19;19930;-62
2023/03/12 11:41:34;;;;;;;14.27;7.90;;;5.40;81.90;;;;;;9171524;19;20018;-63
2023/03/12 11:44:48;;;;;;;10.45;7.03;;;5.50;82.10;;;;;;9168098;19;20637;-63
2023/03/12 11:48:04;;;;;;;16.10;8.80;;;5.50;82.00;;;;;;9170316;19;20502;-62
2023/03/12 11:51:24;;;;;;;17.95;9.05;;;5.60;82.20;;;;;;9168937;19;20022;-63
2023/03/12 11:54:51;;;;;;;18.00;7.57;;;5.70;82.30;;;;;;9172069;19;20379;-63
2023/03/12 11:58:09;;;;;;;18.85;9.20;;;5.70;82.30;;;;;;9165892;19;20134;-63
2023/03/12 12:01:22;;;;;;;20.23;9.45;;;5.80;82.30;;;;;;9162543;19;20843;-63
2023/03/12 12:04:51;;;;;;;18.63;9.88;;;5.90;82.40;;;;;;9163846;19;20022;-63
2023/03/12 12:08:13;;;;;;;19.80;9.18;;;6.00;82.60;;;;;;9158925;19;20018;-63
2023/03/12 12:11:22;;;;;;;21.52;8.88;;;6.00;82.50;;;;;;9161142;19;20031;-63
2023/03/12 12:14:40;;;;;;;19.20;10.00;;;6.10;82.50;;;;;;9156552;19;20024;-63
2023/03/12 12:17:56;;;;;;;19.10;10.05;;;6.20;82.60;;;;;;9159811;19;20488;-63
2023/03/12 12:21:07;;;;;;;26.27;10.98;;;6.30;82.70;;;;;;9151862;19;20019;-63
2023/03/12 12:24:25;;;;;;;19.55;11.02;;;6.40;82.80;;;;;;9160462;19;20018;-63
2023/03/12 12:27:34;;;;;;;25.25;11.68;;;6.40;82.90;;;;;;9159602;19;20706;-64
2023/03/12 12:30:52;;;;;;;30.25;12.88;;;6.50;82.90;;;;;;9162353;19;20047;-63
2023/03/12 12:34:20;;;;;;;23.15;11.50;;;6.60;83.10;;;;;;9158999;19;20019;-63
2023/03/12 12:37:35;;;;;;;26.50;13.32;;;6.70;83.10;;;;;;9167541;19;20451;-64
2023/03/12 12:40:48;;;;;;;30.75;12.93;;;6.80;83.20;;;;;;9165669;19;20504;-63
2023/03/12 12:43:56;;;;;;;35.05;13.30;;;6.90;83.20;;;;;;9167790;19;20018;-64
2023/03/12 12:47:11;;;;;;;36.22;13.98;;;7.00;83.30;;;;;;9174167;19;20479;-63
2023/03/12 12:50:20;;;;;;;31.70;13.60;;;7.10;83.30;;;;;;9175748;19;20037;-63
2023/03/12 12:53:31;;;;;;;33.67;15.30;;;7.20;83.40;;;;;;9173765;19;20025;-64
2023/03/12 12:56:45;;;;;;;32.55;14.73;;;7.30;83.50;;;;;;9152390;19;20652;-64
2023/03/12 13:00:09;;;;;;;36.50;14.13;;;7.40;83.60;;;;;;9175403;19;20345;-64
2023/03/12 13:03:16;;;;;;;36.40;14.80;;;7.50;83.70;;;;;;9183128;19;20520;-63
2023/03/12 13:06:22;;;;;;;36.03;14.88;;;7.60;83.60;;;;;;9184330;19;20018;-64
2023/03/12 13:09:42;;;;;;;36.40;15.07;;;7.60;83.70;;;;;;9180202;19;20479;-63
2023/03/12 13:12:54;;;;;;;36.15;15.90;;;7.70;83.90;;;;;;9174838;19;20470;-64
2023/03/12 13:16:22;;;;;;;31.35;15.18;;;7.90;83.80;;;;;;9181318;19;20022;-63
2023/03/12 13:19:29;;;;;;;42.33;16.60;;;8.00;84.00;;;;;;9183286;19;20022;-64
2023/03/12 13:22:56;;;;;;;52.83;19.48;;;8.00;83.80;;;;;;9182210;19;20014;-63
2023/03/12 13:26:11;;;;;;;46.35;17.58;;;8.10;84.10;;;;;;9182555;19;20014;-64
2023/03/12 13:29:37;;;;;;;46.80;16.63;;;8.20;84.10;;;;;;9183951;19;20014;-64
2023/03/12 13:33:11;;;;;;;44.42;14.95;;;8.30;84.10;;;;;;9178182;19;20025;-64
2023/03/12 13:36:24;;;;;;;44.63;15.50;;;8.40;84.20;;;;;;9180941;19;20018;-64
2023/03/12 13:39:33;;;;;;;33.08;14.38;;;8.50;84.20;;;;;;9181315;19;20010;-64
2023/03/12 13:42:40;;;;;;;30.80;14.75;;;8.60;84.10;;;;;;9182048;19;20494;-64
2023/03/12 13:46:02;;;;;;;41.30;14.77;;;8.70;84.30;;;;;;9180422;19;20356;-64
2023/03/12 13:49:16;;;;;;;36.58;14.63;;;8.70;84.40;;;;;;9182158;19;20014;-64
2023/03/12 13:52:27;;;;;;;42.17;14.27;;;8.80;84.40;;;;;;9180830;19;20022;-64
2023/03/12 13:55:33;;;;;;;26.33;12.70;;;8.90;84.40;;;;;;9182101;19;20035;-64
2023/03/12 13:58:43;;;;;;;31.05;12.77;;;9.00;84.40;;;;;;9181648;19;20486;-64
2023/03/12 14:01:52;;;;;;;30.98;13.65;;;9.00;84.50;;;;;;9180584;19;20676;-64
2023/03/12 14:05:05;;;;;;;28.15;12.13;;;9.20;84.60;;;;;;9180581;19;20018;-64
2023/03/12 14:08:21;;;;;;;28.75;12.43;;;9.20;84.60;;;;;;9180818;19;20043;-64
2023/03/12 14:11:44;;;;;;;30.48;12.00;;;9.30;84.60;;;;;;9179501;19;20021;-64
2023/03/12 14:15:08;;;;;;;25.65;11.32;;;9.40;84.70;;;;;;9175422;19;20026;-64
2023/03/12 14:18:21;;;;;;;25.27;10.32;;;9.50;84.80;;;;;;9179664;19;20014;-65
2023/03/12 14:21:32;;;;;;;25.30;10.18;;;9.50;84.60;;;;;;9180862;19;20021;-64
2023/03/12 14:24:42;;;;;;;30.85;10.05;;;9.60;84.60;;;;;;9182480;19;20026;-64
2023/03/12 14:27:48;;;;;;;19.65;10.93;;;9.60;84.60;;;;;;9171595;19;20085;-63
2023/03/12 14:31:00;;;;;;;23.25;9.20;;;9.70;84.60;;;;;;9180309;19;20017;-64
2023/03/12 14:34:10;;;;;;;21.95;9.70;;;9.70;84.60;;;;;;9177216;19;20503;-63
2023/03/12 14:37:20;;;;;;;20.63;8.40;;;9.80;84.60;;;;;;9181317;19;20476;-64
2023/03/12 14:40:31;;;;;;;24.27;8.20;;;9.80;84.60;;;;;;9180208;19;20022;-64
2023/03/12 14:43:37;;;;;;;23.67;8.32;;;9.90;84.70;;;;;;9180871;19;20010;-63
2023/03/12 14:46:56;;;;;;;26.02;8.30;;;9.90;84.70;;;;;;9181870;19;20014;-63
2023/03/12 14:50:04;;;;;;;26.50;8.23;;;9.90;84.70;;;;;;9182062;19;20015;-63
2023/03/12 14:53:13;;;;;;;22.58;7.88;;;9.90;84.60;;;;;;9176652;19;20303;-63
2023/03/12 14:56:28;;;;;;;22.13;7.85;;;9.90;84.70;;;;;;9180475;19;20014;-63
2023/03/12 14:59:33;;;;;;;26.00;7.35;;;10.00;84.80;;;;;;9169708;19;20081;-63
2023/03/12 15:02:40;;;;;;;23.20;7.75;;;10.00;84.80;;;;;;9174944;19;20025;-64
2023/03/12 15:05:48;;;;;;;24.30;7.50;;;10.00;84.80;;;;;;9171689;19;20102;-64
2023/03/12 15:08:55;;;;;;;44.92;9.77;;;10.00;84.90;;;;;;9170789;19;20019;-64
2023/03/12 15:12:02;;;;;;;35.20;8.20;;;10.00;84.90;;;;;;9170655;19;20026;-64
2023/03/12 15:15:11;;;;;;;45.45;7.57;;;10.10;85.00;;;;;;9166302;19;20010;-64
2023/03/12 15:18:19;;;;;;;30.20;8.38;;;10.10;85.00;;;;;;9171343;19;20015;-64
2023/03/12 15:21:28;;;;;;;44.25;7.70;;;10.10;85.00;;;;;;9171261;19;20372;-64
2023/03/12 15:24:39;;;;;;;32.65;7.47;;;10.20;85.00;;;;;;9171210;19;20014;-64
2023/03/12 15:27:45;;;;;;;40.53;8.60;;;10.20;85.10;;;;;;9169817;19;20388;-64
2023/03/12 15:31:06;;;;;;;30.90;6.60;;;10.20;85.00;;;;;;9170208;19;20029;-63
2023/03/12 15:34:30;;;;;;;41.40;7.10;;;10.30;85.20;;;;;;9169006;19;20021;-64
2023/03/12 15:37:39;;;;;;;46.72;8.63;;;10.30;85.10;;;;;;9171156;19;20022;-64
2023/03/12 15:40:50;;;;;;;49.70;7.93;;;10.30;85.10;;;;;;9171525;19;20025;-63
2023/03/12 15:43:57;;;;;;;44.70;7.63;;;10.30;85.10;;;;;;9171486;19;20609;-64
2023/03/12 15:47:07;;;;;;;47.42;7.13;;;10.30;85.10;;;;;;9171562;19;20455;-63
2023/03/12 15:50:19;;;;;;;33.25;6.30;;;10.40;85.20;;;;;;9171660;19;20014;-63
2023/03/12 15:53:29;;;;;;;;;;;10.40;85.10;;;;;;9171878;19;20014;-63
2023/03/12 15:56:35;;;;;;;34.47;6.15;;;10.50;85.00;;;;;;9167291;19;19931;-63
2023/03/12 15:59:41;;;;;;;37.28;6.53;;;10.50;84.90;;;;;;9165561;19;20549;-63
2023/03/12 16:02:50;;;;;;;;;;;10.50;84.90;;;;;;9168685;19;20394;-63
2023/03/12 16:05:58;;;;;;;40.80;6.32;;;10.50;84.90;;;;;;9169119;19;19918;-62
2023/03/12 16:09:04;;;;;;;46.08;5.75;;;10.50;84.80;;;;;;9166432;19;20032;-63
2023/03/12 16:12:11;;;;;;;38.63;5.75;;;10.50;84.80;;;;;;9168604;19;20014;-64
2023/03/12 16:15:18;;;;;;;43.05;6.90;;;10.50;84.70;;;;;;9163759;19;20022;-63
2023/03/12 16:18:25;;;;;;;41.20;6.20;;;10.50;84.80;;;;;;9170965;19;20014;-62
2023/03/12 16:21:29;;;;;;;36.63;5.38;;;10.50;84.70;;;;;;9168941;19;20055;-63
2023/03/12 16:24:37;;;;;;;35.75;6.00;;;10.60;84.70;;;;;;9168613;19;20696;-63